CPX254 Details

Departure: Princess Juliana International Airport (TNCM)
Arrival: Miami International Airport (KMIA)
Route: PJM B520 STT RTE6 SJU ACONY Y308 FOWEE FLIPR6


Current Weather Information
TNCM 212200Z 08009KT 060V120 9999 FEW020 28/22 Q1015 NOSIG RMK A2998
KMIA 212153Z 11011KT 10SM FEW044 FEW060 FEW250 31/19 A2992 RMK AO2 SLP133 T03060189